RZO123 LPPT-LPPD
Flight info
| Callsign | RZO123 |
|---|---|
| Flight time | N/A |
| Altitude | 37000 |
| Route | ZIFOG DCT TABAX DCT KOMUT/M078F380 DCT 38N020W DCT BEKUN DCT OMOBI |
| Aircraft | A320/M-SDE3FGHIRWY/LB1 |
Departure
| Time | N/A |
|---|---|
| Airport | Lisbon Humberto Delgado Airport (LPPT) |
Arrival
| Time | 2026-05-06 16:07 |
|---|---|
| Airport | João Paulo II Airport (LPPD) |
| Time | Latitude | Longitude | Altitude | Speed | Heading |
|---|---|---|---|---|---|
| 2026-05-06 15:40 | 38.03886 | -22.28540 | 17529 ft | 436 kts | 262° |
| 2026-05-06 15:41 | 38.03358 | -22.32277 | 17307 ft | 424 kts | 261° |
| 2026-05-06 15:41 | 38.02829 | -22.36000 | 17092 ft | 431 kts | 262° |
| 2026-05-06 15:41 | 38.02300 | -22.39738 | 16904 ft | 431 kts | 262° |
| 2026-05-06 15:41 | 38.01768 | -22.43480 | 16716 ft | 430 kts | 262° |
| 2026-05-06 15:42 | 38.01238 | -22.47212 | 16588 ft | 429 kts | 261° |
| 2026-05-06 15:42 | 38.00712 | -22.50929 | 16512 ft | 428 kts | 261° |
| 2026-05-06 15:42 | 38.00186 | -22.54642 | 16469 ft | 428 kts | 261° |
| 2026-05-06 15:42 | 37.99661 | -22.58353 | 16457 ft | 428 kts | 261° |
| 2026-05-06 15:43 | 37.99307 | -22.60857 | 16465 ft | 428 kts | 261° |
| 2026-05-06 15:43 | 37.98783 | -22.64566 | 16494 ft | 428 kts | 261° |
| 2026-05-06 15:43 | 37.98253 | -22.68278 | 16526 ft | 428 kts | 261° |
| 2026-05-06 15:43 | 37.97716 | -22.71991 | 16561 ft | 428 kts | 261° |
| 2026-05-06 15:44 | 37.97175 | -22.75701 | 16607 ft | 428 kts | 261° |
| 2026-05-06 15:44 | 37.96634 | -22.79414 | 16628 ft | 428 kts | 261° |
| 2026-05-06 15:44 | 37.96098 | -22.83123 | 16656 ft | 428 kts | 261° |
| 2026-05-06 15:44 | 37.95562 | -22.86827 | 16667 ft | 427 kts | 261° |
| 2026-05-06 15:45 | 37.95025 | -22.90531 | 16672 ft | 427 kts | 261° |
| 2026-05-06 15:45 | 37.94485 | -22.94233 | 16686 ft | 428 kts | 261° |
| 2026-05-06 15:45 | 37.93939 | -22.97986 | 16689 ft | 428 kts | 261° |
| 2026-05-06 15:45 | 37.93398 | -23.01690 | 16684 ft | 428 kts | 261° |
| 2026-05-06 15:46 | 37.92853 | -23.05391 | 16673 ft | 428 kts | 261° |
| 2026-05-06 15:46 | 37.92300 | -23.09096 | 16658 ft | 428 kts | 261° |
| 2026-05-06 15:46 | 37.91750 | -23.12791 | 16636 ft | 426 kts | 261° |
| 2026-05-06 15:46 | 37.91202 | -23.16478 | 16623 ft | 425 kts | 261° |
| 2026-05-06 15:47 | 37.90659 | -23.20151 | 16609 ft | 424 kts | 261° |
| 2026-05-06 15:47 | 37.90118 | -23.23822 | 16597 ft | 424 kts | 261° |
| 2026-05-06 15:47 | 37.89575 | -23.27493 | 16582 ft | 424 kts | 261° |
| 2026-05-06 15:47 | 37.89032 | -23.31160 | 16567 ft | 424 kts | 261° |
| 2026-05-06 15:48 | 37.88484 | -23.34827 | 16568 ft | 424 kts | 261° |
| 2026-05-06 15:48 | 37.87934 | -23.38495 | 16571 ft | 424 kts | 261° |
| 2026-05-06 15:48 | 37.87383 | -23.42157 | 16565 ft | 424 kts | 260° |
| 2026-05-06 15:48 | 37.86828 | -23.45817 | 16550 ft | 423 kts | 261° |
| 2026-05-06 15:49 | 37.86279 | -23.49430 | 16321 ft | 413 kts | 261° |
| 2026-05-06 15:49 | 37.85740 | -23.52974 | 16024 ft | 408 kts | 261° |
| 2026-05-06 15:49 | 37.85208 | -23.56490 | 15729 ft | 406 kts | 261° |
| 2026-05-06 15:49 | 37.84679 | -23.59986 | 15437 ft | 404 kts | 261° |
| 2026-05-06 15:50 | 37.84151 | -23.63471 | 15151 ft | 403 kts | 261° |
| 2026-05-06 15:50 | 37.83624 | -23.66943 | 14861 ft | 401 kts | 261° |
| 2026-05-06 15:50 | 37.83096 | -23.70400 | 14578 ft | 400 kts | 261° |
| 2026-05-06 15:50 | 37.82567 | -23.73846 | 14314 ft | 398 kts | 261° |
| 2026-05-06 15:51 | 37.82038 | -23.77277 | 14081 ft | 397 kts | 261° |
| 2026-05-06 15:51 | 37.81511 | -23.80695 | 13823 ft | 395 kts | 261° |
| 2026-05-06 15:51 | 37.80987 | -23.84101 | 13558 ft | 394 kts | 261° |
| 2026-05-06 15:51 | 37.80467 | -23.87491 | 13295 ft | 392 kts | 261° |
| 2026-05-06 15:52 | 37.79940 | -23.90916 | 13034 ft | 391 kts | 261° |
| 2026-05-06 15:52 | 37.79421 | -23.94287 | 12775 ft | 390 kts | 261° |
| 2026-05-06 15:52 | 37.78903 | -23.97641 | 12519 ft | 388 kts | 261° |
| 2026-05-06 15:52 | 37.78384 | -24.00989 | 12265 ft | 387 kts | 261° |
| 2026-05-06 15:53 | 37.77863 | -24.04324 | 12012 ft | 386 kts | 261° |
| 2026-05-06 15:53 | 37.77341 | -24.07649 | 11748 ft | 385 kts | 260° |
| 2026-05-06 15:53 | 37.76825 | -24.10958 | 11507 ft | 384 kts | 260° |
| 2026-05-06 15:53 | 37.76309 | -24.14262 | 11261 ft | 382 kts | 260° |
| 2026-05-06 15:54 | 37.75794 | -24.17553 | 10984 ft | 381 kts | 260° |
| 2026-05-06 15:54 | 37.75276 | -24.20833 | 10763 ft | 380 kts | 260° |
| 2026-05-06 15:54 | 37.74758 | -24.24103 | 10547 ft | 379 kts | 260° |
| 2026-05-06 15:54 | 37.74242 | -24.27364 | 10326 ft | 378 kts | 260° |
| 2026-05-06 15:55 | 37.73727 | -24.30617 | 10112 ft | 377 kts | 260° |
| 2026-05-06 15:55 | 37.73213 | -24.33861 | 9880 ft | 376 kts | 260° |
| 2026-05-06 15:55 | 37.72698 | -24.37100 | 9643 ft | 375 kts | 260° |
| 2026-05-06 15:55 | 37.72183 | -24.40329 | 9395 ft | 374 kts | 259° |
| 2026-05-06 15:56 | 37.71670 | -24.43542 | 9166 ft | 373 kts | 259° |
| 2026-05-06 15:56 | 37.71152 | -24.46791 | 8927 ft | 372 kts | 259° |
| 2026-05-06 15:56 | 37.70641 | -24.49984 | 8696 ft | 370 kts | 259° |
| 2026-05-06 15:56 | 37.70130 | -24.53168 | 8471 ft | 369 kts | 259° |
| 2026-05-06 15:57 | 37.69651 | -24.56348 | 8271 ft | 368 kts | 263° |
| 2026-05-06 15:57 | 37.69351 | -24.59553 | 8070 ft | 367 kts | 264° |
| 2026-05-06 15:57 | 37.69095 | -24.62755 | 7864 ft | 366 kts | 265° |
| 2026-05-06 15:57 | 37.68857 | -24.66039 | 7669 ft | 365 kts | 265° |
| 2026-05-06 15:58 | 37.68635 | -24.69189 | 7470 ft | 364 kts | 265° |
| 2026-05-06 15:58 | 37.68406 | -24.72412 | 7259 ft | 364 kts | 265° |
| 2026-05-06 15:58 | 37.68173 | -24.75591 | 7069 ft | 364 kts | 265° |
| 2026-05-06 15:58 | 37.67933 | -24.78767 | 6873 ft | 363 kts | 265° |
| 2026-05-06 15:59 | 37.67689 | -24.81937 | 6680 ft | 362 kts | 265° |
| 2026-05-06 15:59 | 37.67440 | -24.85096 | 6476 ft | 361 kts | 264° |
| 2026-05-06 15:59 | 37.67189 | -24.88246 | 6267 ft | 360 kts | 264° |
| 2026-05-06 15:59 | 37.66938 | -24.91387 | 6055 ft | 359 kts | 264° |
| 2026-05-06 16:00 | 37.66687 | -24.94515 | 5853 ft | 358 kts | 264° |
| 2026-05-06 16:00 | 37.66440 | -24.97633 | 5650 ft | 357 kts | 264° |
| 2026-05-06 16:00 | 37.66193 | -25.00744 | 5446 ft | 356 kts | 264° |
| 2026-05-06 16:00 | 37.65947 | -25.03848 | 5242 ft | 355 kts | 265° |
| 2026-05-06 16:01 | 37.65702 | -25.06942 | 5041 ft | 354 kts | 265° |
| 2026-05-06 16:01 | 37.65458 | -25.10022 | 4834 ft | 352 kts | 265° |
| 2026-05-06 16:01 | 37.65212 | -25.13095 | 4622 ft | 351 kts | 265° |
| 2026-05-06 16:01 | 37.64962 | -25.16153 | 4415 ft | 350 kts | 264° |
| 2026-05-06 16:02 | 37.64706 | -25.19250 | 4211 ft | 349 kts | 265° |
| 2026-05-06 16:02 | 37.64493 | -25.22295 | 4007 ft | 347 kts | 270° |
| 2026-05-06 16:02 | 37.64695 | -25.25314 | 3802 ft | 345 kts | 277° |
| 2026-05-06 16:02 | 37.64967 | -25.28318 | 3600 ft | 345 kts | 277° |
| 2026-05-06 16:03 | 37.65239 | -25.31324 | 3400 ft | 344 kts | 276° |
| 2026-05-06 16:03 | 37.65508 | -25.34317 | 3194 ft | 343 kts | 276° |
| 2026-05-06 16:03 | 37.65776 | -25.37306 | 3020 ft | 342 kts | 276° |
| 2026-05-06 16:03 | 37.66043 | -25.40290 | 2990 ft | 343 kts | 276° |
| 2026-05-06 16:04 | 37.66368 | -25.43260 | 3001 ft | 342 kts | 282° |
| 2026-05-06 16:04 | 37.66926 | -25.46182 | 3004 ft | 342 kts | 283° |
| 2026-05-06 16:04 | 37.67596 | -25.49056 | 3008 ft | 342 kts | 289° |
| 2026-05-06 16:04 | 37.68489 | -25.51838 | 3013 ft | 341 kts | 292° |
| 2026-05-06 16:05 | 37.69411 | -25.54600 | 2605 ft | 338 kts | 292° |
| 2026-05-06 16:05 | 37.70280 | -25.57341 | 2141 ft | 326 kts | 291° |
| 2026-05-06 16:05 | 37.71098 | -25.59950 | 1710 ft | 314 kts | 291° |
| 2026-05-06 16:05 | 37.71895 | -25.62474 | 1285 ft | 305 kts | 291° |
| 2026-05-06 16:06 | 37.72668 | -25.64917 | 880 ft | 292 kts | 290° |
| 2026-05-06 16:06 | 37.73398 | -25.67220 | 519 ft | 253 kts | 290° |
| 2026-05-06 16:06 | 37.73805 | -25.68503 | 309 ft | 214 kts | 290° |
| 2026-05-06 16:06 | 37.74292 | -25.70033 | 252 ft | 151 kts | 289° |
| 2026-05-06 16:07 | 37.74572 | -25.70979 | 274 ft | 71 kts | 293° |
| 2026-05-06 16:07 | 37.74785 | -25.71296 | 271 ft | 28 kts | 357° |
| 2026-05-06 16:07 | 37.74826 | -25.71265 | 272 ft | 10 kts | 41° |
| 2026-05-06 16:07 | 37.74893 | -25.71227 | 272 ft | 6 kts | 22° |